sensor_id;sensor_type;location;lat;lon;timestamp;P1;durP1;ratioP1;P2;durP2;ratioP2
359;SDS011;168;48.872;9.226;2022-10-31T00:01:27;17.00;;;13.80;;
359;SDS011;168;48.872;9.226;2022-10-31T00:03:56;16.20;;;14.40;;
359;SDS011;168;48.872;9.226;2022-10-31T00:06:24;17.87;;;14.30;;
359;SDS011;168;48.872;9.226;2022-10-31T00:08:52;14.70;;;13.30;;
359;SDS011;168;48.872;9.226;2022-10-31T00:11:20;17.93;;;14.20;;
359;SDS011;168;48.872;9.226;2022-10-31T00:13:48;15.40;;;13.80;;
359;SDS011;168;48.872;9.226;2022-10-31T00:16:16;15.70;;;14.03;;
359;SDS011;168;48.872;9.226;2022-10-31T00:18:47;17.30;;;15.13;;
359;SDS011;168;48.872;9.226;2022-10-31T00:21:15;15.83;;;14.10;;
359;SDS011;168;48.872;9.226;2022-10-31T00:23:43;15.50;;;13.90;;
359;SDS011;168;48.872;9.226;2022-10-31T00:26:10;17.63;;;14.33;;
359;SDS011;168;48.872;9.226;2022-10-31T00:28:38;18.40;;;13.60;;
359;SDS011;168;48.872;9.226;2022-10-31T00:31:07;15.23;;;13.70;;
359;SDS011;168;48.872;9.226;2022-10-31T00:33:36;15.90;;;13.80;;
359;SDS011;168;48.872;9.226;2022-10-31T00:36:07;15.13;;;13.50;;
359;SDS011;168;48.872;9.226;2022-10-31T00:38:37;17.10;;;13.30;;
359;SDS011;168;48.872;9.226;2022-10-31T00:41:04;15.00;;;13.33;;
359;SDS011;168;48.872;9.226;2022-10-31T00:43:31;17.50;;;14.10;;
359;SDS011;168;48.872;9.226;2022-10-31T00:45:59;16.17;;;13.80;;
359;SDS011;168;48.872;9.226;2022-10-31T00:48:26;18.60;;;14.40;;
359;SDS011;168;48.872;9.226;2022-10-31T00:50:54;17.83;;;13.90;;
359;SDS011;168;48.872;9.226;2022-10-31T00:53:23;15.67;;;12.70;;
359;SDS011;168;48.872;9.226;2022-10-31T00:55:50;18.50;;;13.70;;
359;SDS011;168;48.872;9.226;2022-10-31T00:58:18;13.77;;;12.37;;
359;SDS011;168;48.872;9.226;2022-10-31T01:00:46;14.30;;;12.80;;
359;SDS011;168;48.872;9.226;2022-10-31T01:03:20;13.00;;;11.63;;
359;SDS011;168;48.872;9.226;2022-10-31T01:05:55;15.10;;;11.70;;
359;SDS011;168;48.872;9.226;2022-10-31T01:08:25;15.37;;;12.67;;
359;SDS011;168;48.872;9.226;2022-10-31T01:10:59;16.20;;;11.27;;
359;SDS011;168;48.872;9.226;2022-10-31T01:13:32;15.90;;;11.50;;
359;SDS011;168;48.872;9.226;2022-10-31T01:16:00;12.03;;;10.90;;
359;SDS011;168;48.872;9.226;2022-10-31T01:18:29;11.87;;;10.67;;
359;SDS011;168;48.872;9.226;2022-10-31T01:20:57;12.10;;;10.90;;
359;SDS011;168;48.872;9.226;2022-10-31T01:23:27;11.23;;;10.10;;
359;SDS011;168;48.872;9.226;2022-10-31T01:26:02;11.40;;;9.97;;
359;SDS011;168;48.872;9.226;2022-10-31T01:28:31;12.37;;;11.17;;
359;SDS011;168;48.872;9.226;2022-10-31T01:31:02;16.07;;;10.80;;
359;SDS011;168;48.872;9.226;2022-10-31T01:33:30;13.70;;;12.33;;
359;SDS011;168;48.872;9.226;2022-10-31T01:35:58;13.10;;;11.50;;
359;SDS011;168;48.872;9.226;2022-10-31T01:38:27;13.40;;;11.70;;
359;SDS011;168;48.872;9.226;2022-10-31T01:40:54;14.13;;;12.17;;
359;SDS011;168;48.872;9.226;2022-10-31T01:43:22;14.10;;;12.80;;
359;SDS011;168;48.872;9.226;2022-10-31T01:45:51;13.10;;;11.80;;
359;SDS011;168;48.872;9.226;2022-10-31T01:48:21;15.70;;;11.00;;
359;SDS011;168;48.872;9.226;2022-10-31T01:50:53;13.97;;;12.53;;
359;SDS011;168;48.872;9.226;2022-10-31T01:53:22;12.27;;;11.10;;
359;SDS011;168;48.872;9.226;2022-10-31T01:55:52;17.50;;;12.63;;
359;SDS011;168;48.872;9.226;2022-10-31T01:58:20;17.03;;;12.37;;
359;SDS011;168;48.872;9.226;2022-10-31T02:00:53;13.97;;;12.23;;
359;SDS011;168;48.872;9.226;2022-10-31T02:03:22;14.27;;;12.80;;
359;SDS011;168;48.872;9.226;2022-10-31T02:05:52;14.10;;;12.60;;
359;SDS011;168;48.872;9.226;2022-10-31T02:08:21;13.83;;;11.37;;
359;SDS011;168;48.872;9.226;2022-10-31T02:10:54;15.27;;;11.10;;
359;SDS011;168;48.872;9.226;2022-10-31T02:13:22;13.50;;;11.73;;
359;SDS011;168;48.872;9.226;2022-10-31T02:15:52;12.33;;;10.93;;
359;SDS011;168;48.872;9.226;2022-10-31T02:18:21;14.00;;;11.80;;
359;SDS011;168;48.872;9.226;2022-10-31T02:20:52;13.60;;;11.17;;
359;SDS011;168;48.872;9.226;2022-10-31T02:23:31;14.50;;;12.57;;
359;SDS011;168;48.872;9.226;2022-10-31T02:26:43;11.47;;;10.33;;
359;SDS011;168;48.872;9.226;2022-10-31T02:32:50;14.80;;;11.60;;
359;SDS011;168;48.872;9.226;2022-10-31T02:35:28;11.20;;;10.00;;
359;SDS011;168;48.872;9.226;2022-10-31T02:38:10;13.40;;;12.00;;
359;SDS011;168;48.872;9.226;2022-10-31T02:40:46;15.63;;;12.00;;
359;SDS011;168;48.872;9.226;2022-10-31T02:43:20;13.47;;;12.03;;
359;SDS011;168;48.872;9.226;2022-10-31T02:45:54;14.70;;;11.40;;
359;SDS011;168;48.872;9.226;2022-10-31T02:48:30;12.47;;;11.03;;
359;SDS011;168;48.872;9.226;2022-10-31T02:51:01;13.37;;;11.37;;
359;SDS011;168;48.872;9.226;2022-10-31T02:53:31;12.93;;;11.63;;
359;SDS011;168;48.872;9.226;2022-10-31T02:56:01;13.00;;;11.60;;
359;SDS011;168;48.872;9.226;2022-10-31T02:58:33;16.73;;;12.43;;
359;SDS011;168;48.872;9.226;2022-10-31T03:04:23;14.07;;;11.70;;
359;SDS011;168;48.872;9.226;2022-10-31T03:07:03;16.20;;;12.60;;
359;SDS011;168;48.872;9.226;2022-10-31T03:09:38;13.13;;;11.47;;
359;SDS011;168;48.872;9.226;2022-10-31T03:12:13;13.00;;;11.33;;
359;SDS011;168;48.872;9.226;2022-10-31T03:14:47;12.50;;;11.00;;
359;SDS011;168;48.872;9.226;2022-10-31T03:17:20;12.37;;;10.83;;
359;SDS011;168;48.872;9.226;2022-10-31T03:19:53;12.67;;;10.77;;
359;SDS011;168;48.872;9.226;2022-10-31T03:22:25;12.90;;;11.10;;
359;SDS011;168;48.872;9.226;2022-10-31T03:24:54;14.30;;;12.47;;
359;SDS011;168;48.872;9.226;2022-10-31T03:27:25;15.03;;;11.77;;
359;SDS011;168;48.872;9.226;2022-10-31T03:29:54;12.17;;;10.97;;
359;SDS011;168;48.872;9.226;2022-10-31T03:32:25;15.93;;;12.40;;
359;SDS011;168;48.872;9.226;2022-10-31T03:34:57;15.07;;;11.40;;
359;SDS011;168;48.872;9.226;2022-10-31T03:37:28;13.97;;;11.00;;
359;SDS011;168;48.872;9.226;2022-10-31T03:39:59;11.33;;;10.17;;
359;SDS011;168;48.872;9.226;2022-10-31T03:42:28;12.20;;;10.80;;
359;SDS011;168;48.872;9.226;2022-10-31T03:44:58;14.03;;;11.40;;
359;SDS011;168;48.872;9.226;2022-10-31T03:47:30;13.30;;;11.97;;
359;SDS011;168;48.872;9.226;2022-10-31T03:49:59;11.87;;;10.77;;
359;SDS011;168;48.872;9.226;2022-10-31T03:52:27;11.97;;;10.77;;
359;SDS011;168;48.872;9.226;2022-10-31T03:54:57;12.13;;;10.83;;
359;SDS011;168;48.872;9.226;2022-10-31T03:57:32;12.23;;;9.77;;
359;SDS011;168;48.872;9.226;2022-10-31T04:00:04;15.80;;;10.70;;
359;SDS011;168;48.872;9.226;2022-10-31T04:02:34;12.27;;;10.37;;
359;SDS011;168;48.872;9.226;2022-10-31T04:05:10;13.40;;;10.50;;
359;SDS011;168;48.872;9.226;2022-10-31T04:07:40;13.80;;;10.83;;
359;SDS011;168;48.872;9.226;2022-10-31T04:10:12;13.40;;;10.97;;
359;SDS011;168;48.872;9.226;2022-10-31T04:12:41;10.90;;;9.90;;
359;SDS011;168;48.872;9.226;2022-10-31T04:15:14;12.57;;;10.10;;
359;SDS011;168;48.872;9.226;2022-10-31T04:17:42;12.00;;;10.83;;
359;SDS011;168;48.872;9.226;2022-10-31T04:20:15;11.07;;;9.90;;
359;SDS011;168;48.872;9.226;2022-10-31T04:22:42;13.43;;;10.60;;
359;SDS011;168;48.872;9.226;2022-10-31T04:25:10;11.57;;;10.33;;
359;SDS011;168;48.872;9.226;2022-10-31T04:27:38;16.13;;;11.33;;
359;SDS011;168;48.872;9.226;2022-10-31T04:30:05;11.77;;;10.57;;
359;SDS011;168;48.872;9.226;2022-10-31T04:32:34;14.03;;;10.10;;
359;SDS011;168;48.872;9.226;2022-10-31T04:35:01;12.93;;;10.87;;
359;SDS011;168;48.872;9.226;2022-10-31T04:37:30;12.70;;;10.77;;
359;SDS011;168;48.872;9.226;2022-10-31T04:39:57;12.07;;;10.77;;
359;SDS011;168;48.872;9.226;2022-10-31T04:42:25;14.00;;;11.07;;
359;SDS011;168;48.872;9.226;2022-10-31T04:44:55;11.73;;;10.47;;
359;SDS011;168;48.872;9.226;2022-10-31T04:47:23;12.20;;;10.43;;
359;SDS011;168;48.872;9.226;2022-10-31T04:49:50;13.83;;;9.90;;
359;SDS011;168;48.872;9.226;2022-10-31T04:52:17;10.40;;;9.40;;
359;SDS011;168;48.872;9.226;2022-10-31T04:54:46;10.73;;;8.43;;
359;SDS011;168;48.872;9.226;2022-10-31T04:57:13;10.60;;;8.17;;
359;SDS011;168;48.872;9.226;2022-10-31T04:59:41;9.57;;;8.63;;
359;SDS011;168;48.872;9.226;2022-10-31T05:02:08;11.87;;;8.77;;
359;SDS011;168;48.872;9.226;2022-10-31T05:04:35;9.63;;;8.63;;
359;SDS011;168;48.872;9.226;2022-10-31T05:07:02;10.03;;;8.37;;
359;SDS011;168;48.872;9.226;2022-10-31T05:09:30;8.30;;;7.50;;
359;SDS011;168;48.872;9.226;2022-10-31T05:11:59;12.43;;;8.33;;
359;SDS011;168;48.872;9.226;2022-10-31T05:14:26;9.10;;;8.20;;
359;SDS011;168;48.872;9.226;2022-10-31T05:16:53;10.17;;;8.60;;
359;SDS011;168;48.872;9.226;2022-10-31T05:19:20;11.67;;;8.83;;
359;SDS011;168;48.872;9.226;2022-10-31T05:21:48;9.80;;;7.83;;
359;SDS011;168;48.872;9.226;2022-10-31T05:24:15;12.27;;;8.10;;
359;SDS011;168;48.872;9.226;2022-10-31T05:26:42;8.93;;;8.00;;
359;SDS011;168;48.872;9.226;2022-10-31T05:29:11;10.63;;;9.07;;
359;SDS011;168;48.872;9.226;2022-10-31T05:31:38;10.87;;;9.73;;
359;SDS011;168;48.872;9.226;2022-10-31T05:34:06;14.80;;;10.17;;
359;SDS011;168;48.872;9.226;2022-10-31T05:36:33;10.90;;;9.20;;
359;SDS011;168;48.872;9.226;2022-10-31T05:39:00;9.37;;;8.20;;
359;SDS011;168;48.872;9.226;2022-10-31T05:41:28;10.50;;;8.67;;
359;SDS011;168;48.872;9.226;2022-10-31T05:43:55;10.87;;;8.90;;
359;SDS011;168;48.872;9.226;2022-10-31T05:46:24;11.00;;;8.60;;
359;SDS011;168;48.872;9.226;2022-10-31T05:48:51;10.70;;;9.63;;
359;SDS011;168;48.872;9.226;2022-10-31T05:51:18;10.17;;;9.23;;
359;SDS011;168;48.872;9.226;2022-10-31T05:53:46;11.30;;;10.00;;
359;SDS011;168;48.872;9.226;2022-10-31T05:56:13;10.23;;;9.00;;
359;SDS011;168;48.872;9.226;2022-10-31T05:58:41;10.90;;;9.83;;
359;SDS011;168;48.872;9.226;2022-10-31T06:01:08;15.63;;;10.77;;
359;SDS011;168;48.872;9.226;2022-10-31T06:03:37;12.10;;;10.87;;
359;SDS011;168;48.872;9.226;2022-10-31T06:06:04;13.33;;;10.13;;
359;SDS011;168;48.872;9.226;2022-10-31T06:08:32;11.90;;;10.10;;
359;SDS011;168;48.872;9.226;2022-10-31T06:10:59;14.53;;;10.40;;
359;SDS011;168;48.872;9.226;2022-10-31T06:13:27;12.33;;;10.87;;
359;SDS011;168;48.872;9.226;2022-10-31T06:15:54;14.37;;;12.03;;
359;SDS011;168;48.872;9.226;2022-10-31T06:18:21;12.10;;;10.90;;
359;SDS011;168;48.872;9.226;2022-10-31T06:20:59;18.27;;;11.53;;
359;SDS011;168;48.872;9.226;2022-10-31T06:23:53;14.17;;;11.03;;
359;SDS011;168;48.872;9.226;2022-10-31T06:26:20;12.47;;;11.10;;
359;SDS011;168;48.872;9.226;2022-10-31T06:28:48;13.07;;;11.70;;
359;SDS011;168;48.872;9.226;2022-10-31T06:31:15;12.93;;;11.47;;
359;SDS011;168;48.872;9.226;2022-10-31T06:33:43;10.17;;;9.30;;
359;SDS011;168;48.872;9.226;2022-10-31T06:36:11;14.10;;;10.47;;
359;SDS011;168;48.872;9.226;2022-10-31T06:38:39;12.87;;;10.30;;
359;SDS011;168;48.872;9.226;2022-10-31T06:41:06;11.07;;;9.87;;
359;SDS011;168;48.872;9.226;2022-10-31T06:43:34;15.03;;;10.30;;
359;SDS011;168;48.872;9.226;2022-10-31T06:46:01;11.90;;;10.63;;
359;SDS011;168;48.872;9.226;2022-10-31T06:48:29;11.17;;;10.10;;
359;SDS011;168;48.872;9.226;2022-10-31T06:50:57;11.60;;;9.40;;
359;SDS011;168;48.872;9.226;2022-10-31T06:53:27;11.43;;;10.23;;
359;SDS011;168;48.872;9.226;2022-10-31T06:55:55;14.77;;;11.20;;
359;SDS011;168;48.872;9.226;2022-10-31T06:58:22;10.40;;;8.90;;
359;SDS011;168;48.872;9.226;2022-10-31T07:00:50;11.37;;;9.70;;
359;SDS011;168;48.872;9.226;2022-10-31T07:03:18;10.17;;;9.07;;
359;SDS011;168;48.872;9.226;2022-10-31T07:05:45;11.00;;;9.90;;
359;SDS011;168;48.872;9.226;2022-10-31T07:08:13;13.70;;;10.70;;
359;SDS011;168;48.872;9.226;2022-10-31T07:10:42;13.70;;;11.20;;
359;SDS011;168;48.872;9.226;2022-10-31T07:13:16;11.10;;;10.00;;
359;SDS011;168;48.872;9.226;2022-10-31T07:15:47;11.90;;;10.70;;
359;SDS011;168;48.872;9.226;2022-10-31T07:18:14;11.30;;;9.73;;
359;SDS011;168;48.872;9.226;2022-10-31T07:20:42;9.60;;;8.67;;
359;SDS011;168;48.872;9.226;2022-10-31T07:23:10;12.97;;;10.60;;
359;SDS011;168;48.872;9.226;2022-10-31T07:25:37;13.73;;;10.27;;
359;SDS011;168;48.872;9.226;2022-10-31T07:28:06;12.83;;;9.30;;
359;SDS011;168;48.872;9.226;2022-10-31T07:30:34;11.23;;;9.83;;
359;SDS011;168;48.872;9.226;2022-10-31T07:33:02;12.17;;;9.60;;
359;SDS011;168;48.872;9.226;2022-10-31T07:35:30;11.60;;;10.40;;
359;SDS011;168;48.872;9.226;2022-10-31T07:38:05;11.00;;;9.93;;
359;SDS011;168;48.872;9.226;2022-10-31T07:40:34;11.67;;;10.57;;
359;SDS011;168;48.872;9.226;2022-10-31T07:43:01;11.60;;;10.40;;
359;SDS011;168;48.872;9.226;2022-10-31T07:45:30;11.30;;;10.13;;
359;SDS011;168;48.872;9.226;2022-10-31T07:47:57;14.03;;;10.80;;
359;SDS011;168;48.872;9.226;2022-10-31T07:50:26;12.23;;;11.00;;
359;SDS011;168;48.872;9.226;2022-10-31T07:52:58;12.40;;;10.50;;
359;SDS011;168;48.872;9.226;2022-10-31T07:55:26;11.13;;;9.97;;
359;SDS011;168;48.872;9.226;2022-10-31T07:57:57;14.87;;;10.57;;
359;SDS011;168;48.872;9.226;2022-10-31T08:00:25;10.63;;;9.53;;
359;SDS011;168;48.872;9.226;2022-10-31T08:02:58;12.53;;;10.30;;
359;SDS011;168;48.872;9.226;2022-10-31T08:05:26;12.17;;;10.97;;
359;SDS011;168;48.872;9.226;2022-10-31T08:07:54;12.30;;;10.50;;
359;SDS011;168;48.872;9.226;2022-10-31T08:10:21;12.00;;;10.03;;
359;SDS011;168;48.872;9.226;2022-10-31T08:12:54;12.13;;;10.27;;
359;SDS011;168;48.872;9.226;2022-10-31T08:15:22;10.53;;;9.43;;
359;SDS011;168;48.872;9.226;2022-10-31T08:17:49;10.93;;;9.67;;
359;SDS011;168;48.872;9.226;2022-10-31T08:20:18;10.53;;;9.50;;
359;SDS011;168;48.872;9.226;2022-10-31T08:22:52;10.60;;;9.60;;
359;SDS011;168;48.872;9.226;2022-10-31T08:25:20;9.53;;;8.60;;
359;SDS011;168;48.872;9.226;2022-10-31T08:27:48;10.80;;;9.50;;
359;SDS011;168;48.872;9.226;2022-10-31T08:30:17;10.87;;;9.60;;
359;SDS011;168;48.872;9.226;2022-10-31T08:32:45;10.57;;;9.57;;
359;SDS011;168;48.872;9.226;2022-10-31T08:35:12;11.97;;;9.40;;
359;SDS011;168;48.872;9.226;2022-10-31T08:37:41;10.27;;;9.37;;
359;SDS011;168;48.872;9.226;2022-10-31T08:40:09;11.57;;;8.80;;
359;SDS011;168;48.872;9.226;2022-10-31T08:42:38;10.33;;;9.43;;
359;SDS011;168;48.872;9.226;2022-10-31T08:45:06;11.73;;;10.13;;
359;SDS011;168;48.872;9.226;2022-10-31T08:47:33;11.73;;;9.87;;
359;SDS011;168;48.872;9.226;2022-10-31T08:50:01;9.57;;;8.50;;
359;SDS011;168;48.872;9.226;2022-10-31T08:52:29;10.23;;;9.27;;
359;SDS011;168;48.872;9.226;2022-10-31T08:54:58;9.83;;;8.90;;
359;SDS011;168;48.872;9.226;2022-10-31T08:57:25;10.83;;;9.80;;
359;SDS011;168;48.872;9.226;2022-10-31T08:59:53;10.70;;;9.70;;
359;SDS011;168;48.872;9.226;2022-10-31T09:02:20;11.33;;;10.10;;
359;SDS011;168;48.872;9.226;2022-10-31T09:04:47;10.23;;;8.80;;
359;SDS011;168;48.872;9.226;2022-10-31T09:07:15;9.53;;;8.63;;
359;SDS011;168;48.872;9.226;2022-10-31T09:09:42;9.00;;;8.20;;
359;SDS011;168;48.872;9.226;2022-10-31T09:12:11;8.93;;;8.13;;
359;SDS011;168;48.872;9.226;2022-10-31T09:14:38;9.33;;;8.33;;
359;SDS011;168;48.872;9.226;2022-10-31T09:17:06;10.07;;;9.03;;
359;SDS011;168;48.872;9.226;2022-10-31T09:19:33;9.40;;;8.50;;
359;SDS011;168;48.872;9.226;2022-10-31T09:22:01;8.93;;;8.03;;
359;SDS011;168;48.872;9.226;2022-10-31T09:24:29;10.77;;;8.40;;
359;SDS011;168;48.872;9.226;2022-10-31T09:26:57;13.93;;;8.23;;
359;SDS011;168;48.872;9.226;2022-10-31T09:29:26;10.27;;;8.33;;
359;SDS011;168;48.872;9.226;2022-10-31T09:31:55;11.10;;;8.40;;
359;SDS011;168;48.872;9.226;2022-10-31T09:34:23;11.50;;;8.40;;
359;SDS011;168;48.872;9.226;2022-10-31T09:36:50;8.70;;;7.83;;
359;SDS011;168;48.872;9.226;2022-10-31T09:39:20;10.10;;;8.03;;
359;SDS011;168;48.872;9.226;2022-10-31T09:41:58;8.90;;;8.00;;
359;SDS011;168;48.872;9.226;2022-10-31T09:44:53;8.60;;;7.53;;
359;SDS011;168;48.872;9.226;2022-10-31T09:50:25;8.40;;;7.60;;
359;SDS011;168;48.872;9.226;2022-10-31T09:52:58;8.00;;;7.20;;
359;SDS011;168;48.872;9.226;2022-10-31T09:55:31;8.47;;;7.77;;
359;SDS011;168;48.872;9.226;2022-10-31T09:58:03;10.43;;;7.70;;
359;SDS011;168;48.872;9.226;2022-10-31T10:00:33;8.97;;;7.40;;
359;SDS011;168;48.872;9.226;2022-10-31T10:03:03;9.40;;;7.40;;
359;SDS011;168;48.872;9.226;2022-10-31T10:05:39;7.60;;;6.90;;
359;SDS011;168;48.872;9.226;2022-10-31T10:08:14;10.00;;;6.97;;
359;SDS011;168;48.872;9.226;2022-10-31T10:10:48;8.03;;;7.23;;
359;SDS011;168;48.872;9.226;2022-10-31T10:13:25;11.43;;;8.00;;
359;SDS011;168;48.872;9.226;2022-10-31T10:16:12;10.33;;;7.57;;
359;SDS011;168;48.872;9.226;2022-10-31T10:18:50;10.07;;;7.77;;
359;SDS011;168;48.872;9.226;2022-10-31T10:21:28;8.07;;;6.70;;
359;SDS011;168;48.872;9.226;2022-10-31T10:24:11;7.83;;;7.03;;
359;SDS011;168;48.872;9.226;2022-10-31T10:26:47;15.00;;;7.20;;
359;SDS011;168;48.872;9.226;2022-10-31T10:29:25;11.27;;;7.97;;
359;SDS011;168;48.872;9.226;2022-10-31T10:32:03;9.50;;;8.10;;
359;SDS011;168;48.872;9.226;2022-10-31T10:34:41;10.93;;;7.63;;
359;SDS011;168;48.872;9.226;2022-10-31T10:37:16;7.93;;;7.17;;
359;SDS011;168;48.872;9.226;2022-10-31T10:39:52;8.10;;;7.00;;
359;SDS011;168;48.872;9.226;2022-10-31T10:42:23;7.00;;;6.30;;
359;SDS011;168;48.872;9.226;2022-10-31T10:45:13;12.73;;;9.10;;
359;SDS011;168;48.872;9.226;2022-10-31T10:48:05;10.70;;;7.80;;
359;SDS011;168;48.872;9.226;2022-10-31T10:50:36;9.53;;;7.97;;
359;SDS011;168;48.872;9.226;2022-10-31T10:53:10;8.10;;;7.33;;
359;SDS011;168;48.872;9.226;2022-10-31T10:55:58;8.90;;;7.80;;
359;SDS011;168;48.872;9.226;2022-10-31T10:58:28;10.87;;;8.60;;
359;SDS011;168;48.872;9.226;2022-10-31T11:00:56;8.53;;;7.63;;
359;SDS011;168;48.872;9.226;2022-10-31T11:03:29;10.03;;;7.37;;
359;SDS011;168;48.872;9.226;2022-10-31T11:06:01;10.77;;;9.00;;
359;SDS011;168;48.872;9.226;2022-10-31T11:08:30;9.77;;;8.10;;
359;SDS011;168;48.872;9.226;2022-10-31T11:11:00;9.33;;;8.30;;
359;SDS011;168;48.872;9.226;2022-10-31T11:13:28;8.90;;;8.00;;
359;SDS011;168;48.872;9.226;2022-10-31T11:15:59;10.40;;;8.37;;
359;SDS011;168;48.872;9.226;2022-10-31T11:18:30;11.00;;;8.10;;
359;SDS011;168;48.872;9.226;2022-10-31T11:21:01;10.90;;;8.70;;
359;SDS011;168;48.872;9.226;2022-10-31T11:23:31;11.57;;;8.30;;
359;SDS011;168;48.872;9.226;2022-10-31T11:26:01;9.50;;;8.60;;
359;SDS011;168;48.872;9.226;2022-10-31T11:28:30;10.90;;;8.80;;
359;SDS011;168;48.872;9.226;2022-10-31T11:31:00;13.43;;;10.00;;
359;SDS011;168;48.872;9.226;2022-10-31T11:33:36;9.73;;;8.80;;
359;SDS011;168;48.872;9.226;2022-10-31T11:36:14;9.40;;;8.50;;
359;SDS011;168;48.872;9.226;2022-10-31T11:38:45;11.60;;;9.10;;
359;SDS011;168;48.872;9.226;2022-10-31T11:41:14;14.43;;;9.73;;
359;SDS011;168;48.872;9.226;2022-10-31T11:43:48;11.67;;;9.57;;
359;SDS011;168;48.872;9.226;2022-10-31T11:46:18;12.00;;;10.30;;
359;SDS011;168;48.872;9.226;2022-10-31T11:48:50;9.20;;;8.30;;
359;SDS011;168;48.872;9.226;2022-10-31T11:51:21;11.40;;;9.10;;
359;SDS011;168;48.872;9.226;2022-10-31T11:53:51;10.07;;;8.13;;
359;SDS011;168;48.872;9.226;2022-10-31T11:56:19;12.33;;;8.50;;
359;SDS011;168;48.872;9.226;2022-10-31T11:58:54;10.73;;;8.20;;
359;SDS011;168;48.872;9.226;2022-10-31T12:01:24;10.13;;;8.23;;
359;SDS011;168;48.872;9.226;2022-10-31T12:03:58;11.37;;;8.10;;
359;SDS011;168;48.872;9.226;2022-10-31T12:06:31;9.40;;;8.40;;
359;SDS011;168;48.872;9.226;2022-10-31T12:09:01;9.20;;;7.80;;
359;SDS011;168;48.872;9.226;2022-10-31T12:11:39;9.53;;;7.13;;
359;SDS011;168;48.872;9.226;2022-10-31T12:14:19;10.27;;;8.73;;
359;SDS011;168;48.872;9.226;2022-10-31T12:16:58;10.07;;;9.00;;
359;SDS011;168;48.872;9.226;2022-10-31T12:19:35;8.83;;;7.97;;
359;SDS011;168;48.872;9.226;2022-10-31T12:22:12;8.93;;;8.23;;
359;SDS011;168;48.872;9.226;2022-10-31T12:27:40;10.40;;;8.43;;
359;SDS011;168;48.872;9.226;2022-10-31T12:30:25;12.27;;;8.90;;
359;SDS011;168;48.872;9.226;2022-10-31T12:35:51;10.57;;;8.83;;
359;SDS011;168;48.872;9.226;2022-10-31T12:38:30;9.57;;;8.17;;
359;SDS011;168;48.872;9.226;2022-10-31T12:41:13;10.60;;;9.40;;
359;SDS011;168;48.872;9.226;2022-10-31T12:43:51;12.70;;;8.83;;
359;SDS011;168;48.872;9.226;2022-10-31T12:46:25;9.40;;;8.30;;
359;SDS011;168;48.872;9.226;2022-10-31T12:49:14;9.30;;;8.40;;
359;SDS011;168;48.872;9.226;2022-10-31T12:52:10;10.27;;;8.90;;
359;SDS011;168;48.872;9.226;2022-10-31T12:54:51;10.50;;;8.83;;
359;SDS011;168;48.872;9.226;2022-10-31T12:57:36;12.50;;;9.73;;
359;SDS011;168;48.872;9.226;2022-10-31T13:00:11;8.80;;;7.70;;
359;SDS011;168;48.872;9.226;2022-10-31T13:02:42;9.63;;;8.60;;
359;SDS011;168;48.872;9.226;2022-10-31T13:05:17;8.83;;;7.63;;
359;SDS011;168;48.872;9.226;2022-10-31T13:07:52;9.87;;;8.90;;
359;SDS011;168;48.872;9.226;2022-10-31T13:10:24;10.57;;;8.50;;
359;SDS011;168;48.872;9.226;2022-10-31T13:12:58;10.13;;;8.30;;
359;SDS011;168;48.872;9.226;2022-10-31T13:15:32;9.90;;;8.90;;
359;SDS011;168;48.872;9.226;2022-10-31T13:18:22;9.63;;;8.03;;
359;SDS011;168;48.872;9.226;2022-10-31T13:20:54;11.50;;;9.33;;
359;SDS011;168;48.872;9.226;2022-10-31T13:23:27;11.30;;;8.37;;
359;SDS011;168;48.872;9.226;2022-10-31T13:25:56;40.03;;;28.90;;
359;SDS011;168;48.872;9.226;2022-10-31T13:28:27;11.40;;;9.70;;
359;SDS011;168;48.872;9.226;2022-10-31T13:31:00;11.90;;;9.87;;
359;SDS011;168;48.872;9.226;2022-10-31T13:33:29;12.27;;;10.10;;
359;SDS011;168;48.872;9.226;2022-10-31T13:36:05;15.13;;;11.83;;
359;SDS011;168;48.872;9.226;2022-10-31T13:38:41;12.67;;;10.93;;
359;SDS011;168;48.872;9.226;2022-10-31T13:41:18;11.07;;;9.40;;
359;SDS011;168;48.872;9.226;2022-10-31T13:43:59;12.90;;;9.30;;
359;SDS011;168;48.872;9.226;2022-10-31T13:46:34;14.43;;;10.67;;
359;SDS011;168;48.872;9.226;2022-10-31T13:49:04;13.33;;;9.90;;
359;SDS011;168;48.872;9.226;2022-10-31T13:51:48;13.10;;;10.77;;
359;SDS011;168;48.872;9.226;2022-10-31T13:54:23;10.63;;;8.80;;
359;SDS011;168;48.872;9.226;2022-10-31T13:56:58;14.40;;;8.70;;
359;SDS011;168;48.872;9.226;2022-10-31T13:59:27;11.50;;;8.50;;
359;SDS011;168;48.872;9.226;2022-10-31T14:01:58;12.63;;;8.60;;
359;SDS011;168;48.872;9.226;2022-10-31T14:04:29;10.07;;;8.47;;
359;SDS011;168;48.872;9.226;2022-10-31T14:07:05;10.67;;;8.27;;
359;SDS011;168;48.872;9.226;2022-10-31T14:09:36;14.40;;;8.80;;
359;SDS011;168;48.872;9.226;2022-10-31T14:12:06;11.70;;;8.50;;
359;SDS011;168;48.872;9.226;2022-10-31T14:14:41;10.87;;;8.00;;
359;SDS011;168;48.872;9.226;2022-10-31T14:17:17;8.30;;;7.50;;
359;SDS011;168;48.872;9.226;2022-10-31T14:19:59;10.20;;;7.93;;
359;SDS011;168;48.872;9.226;2022-10-31T14:22:29;13.53;;;9.60;;
359;SDS011;168;48.872;9.226;2022-10-31T14:24:59;9.00;;;7.80;;
359;SDS011;168;48.872;9.226;2022-10-31T14:27:34;7.60;;;6.80;;
359;SDS011;168;48.872;9.226;2022-10-31T14:30:14;9.50;;;7.53;;
359;SDS011;168;48.872;9.226;2022-10-31T14:32:44;11.67;;;8.27;;
359;SDS011;168;48.872;9.226;2022-10-31T14:35:16;11.07;;;9.93;;
359;SDS011;168;48.872;9.226;2022-10-31T14:37:57;10.80;;;9.80;;
359;SDS011;168;48.872;9.226;2022-10-31T14:40:58;10.13;;;9.13;;
359;SDS011;168;48.872;9.226;2022-10-31T14:43:56;10.30;;;9.40;;
359;SDS011;168;48.872;9.226;2022-10-31T14:46:53;9.83;;;8.33;;
359;SDS011;168;48.872;9.226;2022-10-31T14:49:33;8.83;;;7.57;;
359;SDS011;168;48.872;9.226;2022-10-31T14:52:14;11.13;;;7.53;;
359;SDS011;168;48.872;9.226;2022-10-31T14:54:43;8.47;;;7.53;;
359;SDS011;168;48.872;9.226;2022-10-31T14:57:19;11.20;;;9.10;;
359;SDS011;168;48.872;9.226;2022-10-31T14:59:49;10.60;;;8.13;;
359;SDS011;168;48.872;9.226;2022-10-31T15:02:20;9.40;;;8.50;;
359;SDS011;168;48.872;9.226;2022-10-31T15:04:52;8.80;;;8.00;;
359;SDS011;168;48.872;9.226;2022-10-31T15:07:22;11.50;;;7.67;;
359;SDS011;168;48.872;9.226;2022-10-31T15:09:57;10.00;;;8.17;;
359;SDS011;168;48.872;9.226;2022-10-31T15:12:28;8.67;;;6.97;;
359;SDS011;168;48.872;9.226;2022-10-31T15:14:57;6.83;;;6.23;;
359;SDS011;168;48.872;9.226;2022-10-31T15:17:41;9.40;;;8.03;;
359;SDS011;168;48.872;9.226;2022-10-31T15:20:11;12.83;;;7.50;;
359;SDS011;168;48.872;9.226;2022-10-31T15:22:43;8.60;;;6.73;;
359;SDS011;168;48.872;9.226;2022-10-31T15:25:12;11.03;;;7.13;;
359;SDS011;168;48.872;9.226;2022-10-31T15:27:46;11.10;;;7.17;;
359;SDS011;168;48.872;9.226;2022-10-31T15:30:18;13.23;;;8.50;;
359;SDS011;168;48.872;9.226;2022-10-31T15:32:47;10.00;;;9.00;;
359;SDS011;168;48.872;9.226;2022-10-31T15:35:20;10.37;;;9.37;;
359;SDS011;168;48.872;9.226;2022-10-31T15:37:50;13.03;;;9.90;;
359;SDS011;168;48.872;9.226;2022-10-31T15:40:19;11.13;;;10.03;;
359;SDS011;168;48.872;9.226;2022-10-31T15:42:52;12.00;;;10.63;;
359;SDS011;168;48.872;9.226;2022-10-31T15:45:23;24.47;;;12.50;;
359;SDS011;168;48.872;9.226;2022-10-31T15:47:53;11.50;;;10.27;;
359;SDS011;168;48.872;9.226;2022-10-31T15:50:25;15.87;;;11.60;;
359;SDS011;168;48.872;9.226;2022-10-31T15:52:56;11.70;;;10.53;;
359;SDS011;168;48.872;9.226;2022-10-31T15:55:25;13.73;;;12.33;;
359;SDS011;168;48.872;9.226;2022-10-31T15:57:56;13.83;;;12.20;;
359;SDS011;168;48.872;9.226;2022-10-31T16:00:26;15.43;;;13.30;;
359;SDS011;168;48.872;9.226;2022-10-31T16:03:02;14.70;;;13.20;;
359;SDS011;168;48.872;9.226;2022-10-31T16:05:37;18.37;;;13.80;;
359;SDS011;168;48.872;9.226;2022-10-31T16:08:23;17.13;;;13.97;;
359;SDS011;168;48.872;9.226;2022-10-31T16:10:52;18.93;;;13.27;;